Time;durP1;ratioP1;P1;durP2;ratioP2;P2;SDS_P1;SDS_P2;PMS_P1;PMS_P2;Temp;Humidity;BMP_temperature;BMP_pressure;BME280_temperature;BME280_humidity;BME280_pressure;Samples;Min_cycle;Max_cycle;Signal;HPM_P1;HPM_P2
2023/06/15 00:00:52;;;;;;;8.55;2.92;;;17.30;99.90;;;;;;4930556;29;20066;-92
2023/06/15 00:03:18;;;;;;;11.43;3.28;;;17.20;99.90;;;;;;4911217;29;20078;-92
2023/06/15 00:05:45;;;;;;;9.32;3.13;;;17.20;99.90;;;;;;4895814;29;20039;-93
2023/06/15 00:08:21;;;;;;;6.80;2.83;;;17.30;99.90;;;;;;4927876;29;20027;-93
2023/06/15 00:10:50;;;;;;;6.60;2.95;;;17.30;99.90;;;;;;4927141;29;20079;-93
2023/06/15 00:13:29;;;;;;;7.03;2.92;;;17.20;99.90;;;;;;4928315;29;20028;-92
2023/06/15 00:16:00;;;;;;;7.43;3.00;;;17.20;99.90;;;;;;4942586;29;20036;-92
2023/06/15 00:18:32;;;;;;;6.45;2.72;;;17.20;99.90;;;;;;4926715;29;20114;-91
2023/06/15 00:21:10;;;;;;;5.57;2.88;;;17.20;99.90;;;;;;4942188;29;20039;-93
2023/06/15 00:23:39;;;;;;;5.55;2.80;;;17.10;99.90;;;;;;4958009;29;20042;-92
2023/06/15 00:26:11;;;;;;;10.45;3.20;;;17.10;99.90;;;;;;4942019;29;20023;-92
2023/06/15 00:28:44;;;;;;;13.45;2.65;;;17.10;99.90;;;;;;4926910;29;20073;-92
2023/06/15 00:31:15;;;;;;;10.63;3.40;;;17.10;99.90;;;;;;4955150;29;20031;-92
2023/06/15 00:33:52;;;;;;;7.78;3.03;;;17.10;99.90;;;;;;4938293;29;20036;-92
2023/06/15 00:36:20;;;;;;;7.97;3.50;;;17.10;99.90;;;;;;4922761;29;20035;-94
2023/06/15 00:39:09;;;;;;;8.75;3.72;;;17.00;99.90;;;;;;4920246;29;20122;-92
2023/06/15 00:41:53;;;;;;;;;;;17.00;99.90;;;;;;4917354;29;20031;-93
2023/06/15 00:44:22;;;;;;;9.50;3.00;;;16.90;99.90;;;;;;4925990;29;20395;-93
2023/06/15 00:46:50;;;;;;;9.90;3.15;;;17.00;99.90;;;;;;4925937;29;20042;-92
2023/06/15 00:49:36;;;;;;;7.53;3.17;;;16.90;99.90;;;;;;4957644;29;20031;-93
2023/06/15 00:52:08;;;;;;;4.85;3.03;;;17.00;99.90;;;;;;4904423;29;20057;-92
2023/06/15 00:54:43;;;;;;;10.43;3.08;;;17.00;99.90;;;;;;4912057;29;20118;-92
2023/06/15 00:57:15;;;;;;;7.68;3.60;;;16.90;99.90;;;;;;4910454;29;20031;-92
2023/06/15 01:00:17;;;;;;;9.00;3.38;;;16.90;99.90;;;;;;4911925;29;20035;-92
2023/06/15 01:03:24;;;;;;;8.52;3.25;;;16.80;99.90;;;;;;4934467;29;20042;-92
2023/06/15 01:06:00;;;;;;;5.88;3.08;;;16.80;99.90;;;;;;4927172;29;20114;-92
2023/06/15 01:08:29;;;;;;;7.18;3.60;;;16.80;99.90;;;;;;4941226;29;20061;-92
2023/06/15 01:11:02;;;;;;;9.23;3.53;;;16.80;99.90;;;;;;4926356;29;20094;-91
2023/06/15 01:13:31;;;;;;;7.18;3.33;;;16.70;99.90;;;;;;4941236;29;20028;-94
2023/06/15 01:16:06;;;;;;;6.13;3.42;;;16.80;99.90;;;;;;4918155;29;20032;-92
2023/06/15 01:18:59;;;;;;;9.73;3.78;;;16.70;99.90;;;;;;4910223;29;20509;-92
2023/06/15 01:21:33;;;;;;;5.47;3.30;;;16.70;99.90;;;;;;4929092;29;20070;-92
2023/06/15 01:24:25;;;;;;;7.40;3.70;;;16.70;99.90;;;;;;4925128;29;20043;-92
2023/06/15 01:26:59;;;;;;;6.85;3.72;;;16.60;99.90;;;;;;4926272;29;20086;-92
2023/06/15 01:29:35;;;;;;;10.95;3.60;;;16.60;99.90;;;;;;4927289;29;20317;-92
2023/06/15 01:32:03;;;;;;;7.40;3.53;;;16.60;99.90;;;;;;4929854;29;20054;-92
2023/06/15 01:34:35;;;;;;;6.18;3.80;;;16.60;99.90;;;;;;4925657;29;20027;-92
2023/06/15 01:37:11;;;;;;;7.30;3.42;;;16.60;99.90;;;;;;4910243;29;20126;-92
2023/06/15 01:39:44;;;;;;;7.97;3.75;;;16.50;99.90;;;;;;4910572;29;20035;-92
2023/06/15 01:42:10;;;;;;;7.05;3.63;;;16.50;99.90;;;;;;4925155;29;20444;-92
2023/06/15 01:44:39;;;;;;;8.57;3.50;;;16.50;99.90;;;;;;4925946;29;20039;-92
2023/06/15 01:47:18;;;;;;;11.40;4.00;;;16.50;99.90;;;;;;4956751;29;20462;-92
2023/06/15 01:49:50;;;;;;;9.82;4.00;;;16.50;99.90;;;;;;4925474;29;20455;-92
2023/06/15 01:52:21;;;;;;;7.82;3.80;;;16.40;99.90;;;;;;4941070;29;20495;-92
2023/06/15 01:54:48;;;;;;;8.35;3.95;;;16.40;99.90;;;;;;4941132;29;20023;-91
2023/06/15 01:57:19;;;;;;;7.47;4.10;;;16.40;99.90;;;;;;4909423;29;20045;-92
2023/06/15 01:59:54;;;;;;;6.75;3.72;;;16.40;99.90;;;;;;4938709;29;20058;-92
2023/06/15 02:02:23;;;;;;;6.00;4.22;;;16.30;99.90;;;;;;4925329;29;20043;-92
2023/06/15 02:04:52;;;;;;;7.07;3.78;;;16.30;99.90;;;;;;4941267;29;20431;-92
2023/06/15 02:07:20;;;;;;;11.73;4.10;;;16.30;99.90;;;;;;4925094;29;20039;-92
2023/06/15 02:09:51;;;;;;;8.05;4.25;;;16.30;99.90;;;;;;4941075;29;20150;-93
2023/06/15 02:12:21;;;;;;;8.75;4.22;;;16.30;99.90;;;;;;4910851;29;20038;-92
2023/06/15 02:14:52;;;;;;;10.05;4.10;;;16.30;99.90;;;;;;4941102;29;20040;-92
2023/06/15 02:17:24;;;;;;;7.80;4.00;;;16.20;99.90;;;;;;4954299;29;20448;-92
2023/06/15 02:19:52;;;;;;;8.38;4.10;;;16.20;99.90;;;;;;4925097;29;20027;-92
2023/06/15 02:22:23;;;;;;;7.72;4.05;;;16.20;99.90;;;;;;4909737;29;20445;-92
2023/06/15 02:24:51;;;;;;;7.90;4.30;;;16.20;99.90;;;;;;4943124;29;20113;-92
2023/06/15 02:27:20;;;;;;;11.85;4.75;;;16.20;99.90;;;;;;4928905;29;20440;-92
2023/06/15 02:29:48;;;;;;;6.78;4.00;;;16.20;99.90;;;;;;4944462;29;20053;-91
2023/06/15 02:32:37;;;;;;;7.82;4.18;;;16.10;99.90;;;;;;4928088;29;20496;-92
2023/06/15 02:35:12;;;;;;;6.95;4.50;;;16.10;99.90;;;;;;4914793;29;20110;-91
2023/06/15 02:37:45;;;;;;;9.35;4.65;;;16.10;99.90;;;;;;4913769;29;20027;-92
2023/06/15 02:40:14;;;;;;;8.80;4.57;;;16.10;99.90;;;;;;4928532;29;20352;-92
2023/06/15 02:42:43;;;;;;;9.25;4.85;;;16.10;99.90;;;;;;4928126;29;20031;-91
2023/06/15 02:45:13;;;;;;;6.07;4.00;;;16.10;99.90;;;;;;4928824;29;20381;-92
2023/06/15 02:47:44;;;;;;;8.43;4.20;;;16.10;99.90;;;;;;4943983;29;20039;-92
2023/06/15 02:50:31;;;;;;;9.75;4.82;;;16.10;99.90;;;;;;4934006;29;20571;-92
2023/06/15 02:53:14;;;;;;;7.75;4.75;;;16.10;99.90;;;;;;4945594;29;20042;-92
2023/06/15 02:55:43;;;;;;;7.22;4.40;;;16.10;99.90;;;;;;4929123;29;20432;-91
2023/06/15 02:58:20;;;;;;;10.32;4.68;;;16.10;99.90;;;;;;4919761;29;20396;-91
2023/06/15 03:01:04;;;;;;;10.40;5.22;;;16.10;99.90;;;;;;4913765;29;20050;-92
2023/06/15 03:03:48;;;;;;;10.25;4.68;;;16.10;99.90;;;;;;4930488;29;20043;-92
2023/06/15 03:06:49;;;;;;;9.68;4.60;;;16.00;99.90;;;;;;4911596;29;20054;-91
2023/06/15 03:10:03;;;;;;;;;;;;;;;;;;;;;
2023/06/15 03:12:58;;;;;;;9.05;5.13;;;16.00;99.90;;;;;;4948465;29;20046;-93
2023/06/15 03:15:38;;;;;;;;;;;;;;;;;;;;;
2023/06/15 03:18:17;;;;;;;7.60;5.28;;;15.90;99.90;;;;;;4948934;29;20063;-92
2023/06/15 03:20:52;;;;;;;8.15;5.38;;;15.90;99.90;;;;;;4927742;29;20031;-92
2023/06/15 03:23:19;;;;;;;12.23;5.23;;;15.90;99.90;;;;;;4911788;29;20102;-91
2023/06/15 03:25:50;;;;;;;9.30;5.32;;;15.90;99.90;;;;;;4943237;29;20257;-92
2023/06/15 03:28:22;;;;;;;10.32;5.60;;;15.90;99.90;;;;;;4943194;29;20028;-91
2023/06/15 03:30:53;;;;;;;11.32;5.20;;;15.90;99.90;;;;;;4912344;29;20035;-92
2023/06/15 03:33:23;;;;;;;11.90;5.35;;;15.80;99.90;;;;;;4927319;29;20062;-91
2023/06/15 03:35:53;;;;;;;11.45;5.10;;;15.90;99.90;;;;;;4911449;29;20086;-92
2023/06/15 03:38:20;;;;;;;9.48;5.47;;;15.80;99.90;;;;;;4942057;29;20037;-91
2023/06/15 03:40:50;;;;;;;11.38;5.22;;;15.80;99.90;;;;;;4928222;29;20102;-92
2023/06/15 03:43:19;;;;;;;8.82;5.10;;;15.80;99.90;;;;;;4911953;29;20062;-91
2023/06/15 03:45:46;;;;;;;8.15;4.97;;;15.70;99.90;;;;;;4927024;29;20023;-92
2023/06/15 03:48:23;;;;;;;;;;;;;;;;;;;;;
2023/06/15 03:50:49;;;;;;;9.00;5.20;;;15.80;99.90;;;;;;4942574;29;20031;-92
2023/06/15 03:53:22;;;;;;;10.38;5.28;;;15.80;99.90;;;;;;4941765;29;20086;-92
2023/06/15 03:56:09;;;;;;;11.25;4.90;;;15.80;99.90;;;;;;4944249;29;20027;-92
2023/06/15 03:58:47;;;;;;;10.35;4.88;;;15.80;99.90;;;;;;4943538;29;20385;-92
2023/06/15 04:01:22;;;;;;;13.40;5.78;;;15.90;99.90;;;;;;4928395;29;20118;-92
2023/06/15 04:03:52;;;;;;;9.02;4.90;;;15.90;99.90;;;;;;4942992;29;20035;-92
2023/06/15 04:06:24;;;;;;;12.02;5.30;;;15.80;99.90;;;;;;4951414;29;20046;-92
2023/06/15 04:08:53;;;;;;;12.88;5.55;;;15.90;99.90;;;;;;4926366;29;20061;-92
2023/06/15 04:11:25;;;;;;;11.63;5.60;;;15.90;99.90;;;;;;4926691;29;20035;-92
2023/06/15 04:13:51;;;;;;;7.03;5.43;;;15.90;99.90;;;;;;4911034;29;20110;-92
2023/06/15 04:16:24;;;;;;;10.40;5.88;;;15.90;99.90;;;;;;4943057;29;20024;-92
2023/06/15 04:18:53;;;;;;;9.43;5.90;;;15.90;99.90;;;;;;4896416;29;20439;-92
2023/06/15 04:21:21;;;;;;;9.38;5.78;;;15.90;99.90;;;;;;4927003;29;20336;-92
2023/06/15 04:23:48;;;;;;;13.30;5.78;;;15.90;99.90;;;;;;4926344;29;20377;-93
2023/06/15 04:26:27;;;;;;;8.02;5.32;;;15.90;99.90;;;;;;4940406;29;20110;-93
2023/06/15 04:29:00;;;;;;;9.77;5.13;;;15.90;99.90;;;;;;4908384;29;20059;-92
2023/06/15 04:31:31;;;;;;;10.07;5.18;;;15.90;99.90;;;;;;4907516;29;20035;-92
2023/06/15 04:34:04;;;;;;;9.27;5.00;;;15.90;99.90;;;;;;4923116;29;20039;-91
2023/06/15 04:36:34;;;;;;;9.73;5.60;;;15.90;99.90;;;;;;4923423;29;20378;-93
2023/06/15 04:39:04;;;;;;;10.70;5.80;;;15.90;99.90;;;;;;4923042;29;20031;-94
2023/06/15 04:41:39;;;;;;;11.57;5.97;;;16.00;99.90;;;;;;4923450;29;20287;-93
2023/06/15 04:44:08;;;;;;;8.55;5.93;;;16.00;99.90;;;;;;4923044;29;20087;-92
2023/06/15 04:46:44;;;;;;;8.68;4.93;;;16.00;99.90;;;;;;4906891;29;20067;-92
2023/06/15 04:49:15;;;;;;;8.93;5.80;;;16.00;99.90;;;;;;4908325;29;20446;-93
2023/06/15 04:51:50;;;;;;;9.02;5.40;;;16.10;99.90;;;;;;4922872;29;20051;-92
2023/06/15 04:54:27;;;;;;;7.65;5.60;;;16.10;99.90;;;;;;4910009;29;20053;-92
2023/06/15 04:56:57;;;;;;;12.70;5.63;;;16.10;99.90;;;;;;4907360;29;20043;-93
2023/06/15 04:59:26;;;;;;;9.15;5.60;;;16.20;99.90;;;;;;4922552;29;20034;-92
2023/06/15 05:01:56;;;;;;;9.60;5.43;;;16.20;99.90;;;;;;4925584;29;20031;-91
2023/06/15 05:04:30;;;;;;;10.43;4.82;;;16.20;99.90;;;;;;4923609;29;20050;-91
2023/06/15 05:07:00;;;;;;;9.60;5.93;;;16.30;99.90;;;;;;4926250;29;20031;-91
2023/06/15 05:09:32;;;;;;;8.73;5.38;;;16.30;99.90;;;;;;4925902;29;20077;-92
2023/06/15 05:12:09;;;;;;;9.93;5.38;;;16.40;99.90;;;;;;4910104;29;20127;-92
2023/06/15 05:14:47;;;;;;;;;;;;;;;;;;;;;
2023/06/15 05:17:23;;;;;;;10.73;5.70;;;16.40;99.90;;;;;;4908175;29;20091;-91
2023/06/15 05:19:57;;;;;;;14.68;5.60;;;16.50;99.90;;;;;;4936832;29;20024;-92
2023/06/15 05:22:28;;;;;;;9.43;5.70;;;16.50;99.90;;;;;;4925714;29;20035;-92
2023/06/15 05:24:54;;;;;;;8.85;5.20;;;16.50;99.90;;;;;;4925840;29;20078;-91
2023/06/15 05:27:25;;;;;;;10.68;5.63;;;16.60;99.90;;;;;;4941177;29;20420;-91
2023/06/15 05:29:59;;;;;;;10.75;5.35;;;16.70;99.90;;;;;;4896451;29;20035;-92
2023/06/15 05:32:37;;;;;;;12.77;5.85;;;16.70;99.90;;;;;;4910130;29;20150;-92
2023/06/15 05:35:14;;;;;;;8.35;5.07;;;16.80;99.90;;;;;;4925726;29;20074;-91
2023/06/15 05:37:45;;;;;;;14.23;5.60;;;16.80;99.90;;;;;;4906333;29;20032;-92
2023/06/15 05:40:14;;;;;;;10.48;5.07;;;16.90;99.90;;;;;;4922015;29;20036;-94
2023/06/15 05:42:47;;;;;;;9.27;5.35;;;16.90;99.90;;;;;;4909815;29;20040;-92
2023/06/15 05:45:13;;;;;;;10.18;5.50;;;17.00;99.90;;;;;;4925304;29;20118;-92
2023/06/15 05:47:46;;;;;;;9.40;5.25;;;17.00;99.90;;;;;;4923724;29;20048;-92
2023/06/15 05:50:15;;;;;;;11.50;5.63;;;17.10;99.90;;;;;;4909496;29;20046;-93
2023/06/15 05:52:52;;;;;;;10.30;5.20;;;17.10;99.90;;;;;;4910917;29;20035;-92
2023/06/15 05:55:18;;;;;;;9.05;5.80;;;17.20;99.90;;;;;;4922056;29;20028;-92
2023/06/15 05:57:44;;;;;;;11.32;6.15;;;17.30;99.90;;;;;;4913678;28;20074;-92
2023/06/15 06:00:17;;;;;;;9.77;5.50;;;17.30;99.90;;;;;;4948335;29;20032;-92
2023/06/15 06:03:10;;;;;;;10.73;5.05;;;17.40;99.90;;;;;;4947211;29;20061;-93
2023/06/15 06:05:41;;;;;;;9.73;5.47;;;17.50;99.90;;;;;;4929358;29;20048;-93
2023/06/15 06:08:24;;;;;;;8.25;4.80;;;17.50;99.90;;;;;;4944406;29;20020;-93
2023/06/15 06:11:14;;;;;;;7.60;4.90;;;17.60;99.90;;;;;;4932875;29;20035;-94
2023/06/15 06:14:00;;;;;;;12.40;4.93;;;17.70;99.90;;;;;;4926193;29;20151;-94
2023/06/15 06:16:41;;;;;;;10.35;4.63;;;17.80;99.90;;;;;;4926681;29;20027;-94
2023/06/15 06:19:51;;;;;;;;;;;;;;;;;;;;;
2023/06/15 06:22:30;;;;;;;;;;;;;;;;;;;;;
2023/06/15 06:25:21;;;;;;;10.15;5.43;;;18.00;99.90;;;;;;4917429;29;20114;-94
2023/06/15 06:27:53;;;;;;;9.38;5.32;;;18.20;99.90;;;;;;4927174;29;20130;-95
2023/06/15 06:30:30;;;;;;;8.93;5.10;;;18.20;99.90;;;;;;4929036;29;20349;-94
2023/06/15 06:33:29;;;;;;;10.95;4.80;;;18.30;99.90;;;;;;4918933;29;20425;-93
2023/06/15 06:36:07;;;;;;;10.13;4.65;;;18.40;99.90;;;;;;4929973;29;20055;-93
2023/06/15 06:38:44;;;;;;;9.15;4.55;;;18.50;99.90;;;;;;4928407;29;20106;-93
2023/06/15 06:42:02;;;;;;;7.15;4.35;;;18.60;99.90;;;;;;4960491;29;20026;-93
2023/06/15 06:44:44;;;;;;;10.60;4.13;;;18.70;99.90;;;;;;4914037;29;20053;-94
2023/06/15 06:47:21;;;;;;;12.30;4.15;;;18.70;99.90;;;;;;4943392;29;20123;-93
2023/06/15 06:50:05;;;;;;;7.63;3.42;;;18.80;99.90;;;;;;4913900;29;20027;-96
2023/06/15 06:53:05;;;;;;;7.00;3.67;;;18.90;99.90;;;;;;4925683;29;20050;-94
2023/06/15 06:55:31;;;;;;;6.22;3.05;;;19.00;99.90;;;;;;4944672;29;20039;-94
2023/06/15 06:58:10;;;;;;;8.98;3.10;;;19.10;99.90;;;;;;4945307;29;20063;-94
2023/06/15 07:00:42;;;;;;;12.90;3.53;;;19.10;99.90;;;;;;4960531;29;20027;-95
2023/06/15 07:03:13;;;;;;;7.57;3.28;;;19.20;99.90;;;;;;4960576;29;20031;-94
2023/06/15 07:05:39;;;;;;;8.10;3.38;;;19.20;99.90;;;;;;4944268;29;20106;-94
2023/06/15 07:08:17;;;;;;;7.72;3.25;;;19.40;99.90;;;;;;4959109;29;20039;-94
2023/06/15 07:10:48;;;;;;;8.85;3.33;;;19.40;99.90;;;;;;4959515;28;20107;-94
2023/06/15 07:13:16;;;;;;;10.10;3.63;;;19.50;99.90;;;;;;4944987;29;20447;-95
2023/06/15 07:15:57;;;;;;;7.40;3.03;;;19.60;99.90;;;;;;4960246;29;20035;-95
2023/06/15 07:18:28;;;;;;;7.00;2.90;;;19.60;99.90;;;;;;4909507;29;20310;-94
2023/06/15 07:20:59;;;;;;;6.07;2.90;;;19.70;99.90;;;;;;4928191;29;20062;-94
2023/06/15 07:23:29;;;;;;;6.15;3.15;;;19.80;99.90;;;;;;4927610;29;20031;-94
2023/06/15 07:26:00;;;;;;;6.40;3.15;;;20.00;99.90;;;;;;4928233;29;20031;-95
2023/06/15 07:28:34;;;;;;;7.78;2.85;;;20.00;99.90;;;;;;4913133;29;20115;-94
2023/06/15 07:31:40;;;;;;;6.40;2.85;;;20.10;99.90;;;;;;4933603;29;20341;-94
2023/06/15 07:34:33;;;;;;;;;;;;;;;;;;;;;
2023/06/15 07:37:19;;;;;;;8.40;3.45;;;20.30;99.90;;;;;;4941014;29;20495;-94
2023/06/15 07:40:16;;;;;;;9.27;3.33;;;20.50;99.90;;;;;;4908893;29;20034;-94
2023/06/15 07:42:45;;;;;;;7.25;3.30;;;20.60;99.90;;;;;;4908853;29;20047;-94
2023/06/15 07:45:21;;;;;;;7.65;3.38;;;20.60;99.90;;;;;;4909583;29;20103;-94
2023/06/15 07:47:53;;;;;;;7.05;3.00;;;20.70;99.90;;;;;;4894200;29;20048;-95
2023/06/15 07:50:22;;;;;;;9.20;3.22;;;20.80;99.90;;;;;;4910758;29;20135;-95
2023/06/15 07:52:51;;;;;;;10.18;3.30;;;20.80;99.90;;;;;;4892870;29;20034;-94
2023/06/15 07:55:33;;;;;;;9.18;3.35;;;21.00;99.90;;;;;;4895515;29;20448;-95
2023/06/15 07:58:06;;;;;;;7.75;3.28;;;21.20;99.90;;;;;;4909516;29;20135;-95
2023/06/15 08:00:46;;;;;;;4.95;3.03;;;21.30;99.90;;;;;;4909042;29;20032;-94
2023/06/15 08:03:19;;;;;;;6.97;2.85;;;21.40;99.90;;;;;;4909488;29;20023;-95
2023/06/15 08:05:58;;;;;;;6.68;2.78;;;21.40;99.90;;;;;;4911759;29;20032;-94
2023/06/15 08:08:34;;;;;;;7.72;3.00;;;21.50;99.90;;;;;;4924284;29;20444;-94
2023/06/15 08:11:16;;;;;;;10.30;3.13;;;21.60;99.80;;;;;;4915528;29;20043;-94
2023/06/15 08:14:05;;;;;;;8.18;3.03;;;21.70;99.50;;;;;;4943081;29;20086;-94
2023/06/15 08:16:36;;;;;;;10.57;3.17;;;21.70;99.10;;;;;;4930412;29;20467;-95
2023/06/15 08:19:07;;;;;;;7.38;3.10;;;21.90;99.10;;;;;;4923393;29;20035;-95
2023/06/15 08:21:44;;;;;;;7.63;3.13;;;22.00;99.10;;;;;;4942344;29;20118;-96
2023/06/15 08:24:23;;;;;;;6.53;3.10;;;22.10;99.10;;;;;;4943879;29;20150;-94
2023/06/15 08:30:21;;;;;;;8.10;2.72;;;22.40;98.30;;;;;;4944563;28;20046;-95
2023/06/15 08:33:20;;;;;;;5.03;2.42;;;22.50;97.80;;;;;;4924360;29;20039;-95
2023/06/15 08:36:40;;;;;;;6.75;2.40;;;22.60;97.50;;;;;;4928726;29;20133;-94
2023/06/15 08:39:33;;;;;;;6.32;2.55;;;22.70;97.10;;;;;;4943911;29;20317;-95
2023/06/15 08:42:26;;;;;;;7.82;2.70;;;22.80;97.50;;;;;;4926528;29;20093;-94
2023/06/15 08:45:17;;;;;;;;;;;;;;;;;;;;;
2023/06/15 08:47:58;;;;;;;7.32;2.17;;;22.90;96.20;;;;;;4927386;29;20051;-95
2023/06/15 08:50:57;;;;;;;6.78;2.97;;;23.00;96.20;;;;;;4931447;29;20114;-94
2023/06/15 08:54:08;;;;;;;;;;;;;;;;;;;;;
2023/06/15 08:56:50;;;;;;;6.03;2.65;;;23.00;95.50;;;;;;4907419;29;20074;-94
2023/06/15 08:59:30;;;;;;;7.57;2.40;;;23.20;95.20;;;;;;4909119;29;20062;-95
2023/06/15 09:02:08;;;;;;;5.20;2.40;;;23.30;94.90;;;;;;4912737;29;20113;-95
2023/06/15 09:04:37;;;;;;;5.63;2.38;;;23.50;95.00;;;;;;4925984;29;20035;-95
2023/06/15 09:07:09;;;;;;;7.50;2.53;;;23.60;94.10;;;;;;4924383;29;20329;-94
2023/06/15 09:10:10;;;;;;;8.05;2.50;;;23.60;94.00;;;;;;4943959;29;20039;-95
2023/06/15 09:12:52;;;;;;;7.57;2.60;;;23.70;93.70;;;;;;4942286;29;20035;-95
2023/06/15 09:15:24;;;;;;;5.20;2.58;;;23.70;93.40;;;;;;4928193;29;20031;-95
2023/06/15 09:18:13;;;;;;;6.85;2.65;;;23.90;93.50;;;;;;4935912;29;20035;-94
2023/06/15 09:20:51;;;;;;;5.30;2.50;;;23.90;93.50;;;;;;4912700;29;20498;-95
2023/06/15 09:23:38;;;;;;;4.95;2.30;;;24.10;93.50;;;;;;4926231;29;20101;-95
2023/06/15 09:26:05;;;;;;;;;;;24.20;93.20;;;;;;4911689;29;20035;-96
2023/06/15 09:28:32;;;;;;;7.68;2.45;;;24.30;93.50;;;;;;4926985;29;19915;-94
2023/06/15 09:31:10;;;;;;;6.07;2.40;;;24.40;92.80;;;;;;4911052;29;20059;-95
2023/06/15 09:33:36;;;;;;;4.60;2.30;;;24.50;92.20;;;;;;4944255;29;20329;-95
2023/06/15 09:36:05;;;;;;;8.05;2.75;;;24.70;92.30;;;;;;4914904;29;20028;-95
2023/06/15 09:38:55;;;;;;;4.63;2.45;;;24.60;91.60;;;;;;4930131;29;20043;-94
2023/06/15 09:41:27;;;;;;;9.27;2.45;;;24.60;91.10;;;;;;4931497;29;20082;-95
2023/06/15 09:44:09;;;;;;;6.18;2.40;;;24.70;91.50;;;;;;4962185;29;20425;-94
2023/06/15 09:46:44;;;;;;;4.50;2.22;;;24.70;91.30;;;;;;4914975;29;20114;-95
2023/06/15 09:49:23;;;;;;;5.32;2.47;;;24.70;90.30;;;;;;4930344;29;20074;-95
2023/06/15 09:51:58;;;;;;;4.30;2.28;;;24.80;90.70;;;;;;4947141;29;20142;-96
2023/06/15 09:54:39;;;;;;;10.52;2.50;;;24.90;90.30;;;;;;4946329;29;20441;-95
2023/06/15 09:57:13;;;;;;;7.93;2.58;;;24.90;90.00;;;;;;4931308;29;20027;-96
2023/06/15 09:59:50;;;;;;;8.80;2.40;;;25.00;90.00;;;;;;4937556;29;20039;-95
2023/06/15 10:02:22;;;;;;;4.80;2.30;;;25.00;89.60;;;;;;4929908;29;20063;-95
2023/06/15 10:05:15;;;;;;;6.90;2.60;;;25.00;90.10;;;;;;4914811;29;20063;-96
2023/06/15 10:08:16;;;;;;;8.35;2.88;;;25.10;89.30;;;;;;4914450;29;20035;-94
2023/06/15 10:10:48;;;;;;;4.35;2.58;;;25.10;89.30;;;;;;4911605;29;20028;-95
2023/06/15 10:13:33;;;;;;;;;;;;;;;;;;;;;
2023/06/15 10:16:08;;;;;;;5.28;2.78;;;25.30;89.70;;;;;;4927079;29;20161;-95
2023/06/15 10:18:54;;;;;;;6.68;2.80;;;25.30;90.00;;;;;;4928524;29;20374;-95
2023/06/15 10:21:37;;;;;;;5.88;2.63;;;25.40;89.90;;;;;;4946745;29;20069;-95
2023/06/15 10:24:18;;;;;;;9.25;2.75;;;25.50;90.20;;;;;;4960835;29;20091;-95
2023/06/15 10:27:16;;;;;;;;;;;;;;;;;;;;;
2023/06/15 10:30:20;;;;;;;;;;;;;;;;;;;;;
2023/06/15 10:33:15;;;;;;;5.55;2.40;;;25.80;90.00;;;;;;4944065;29;20400;-95
2023/06/15 10:35:47;;;;;;;8.10;2.53;;;25.80;89.50;;;;;;4928969;29;20122;-96
2023/06/15 10:38:54;;;;;;;4.63;2.60;;;25.90;90.00;;;;;;4930464;29;20050;-96
2023/06/15 10:41:43;;;;;;;7.68;2.70;;;26.00;89.80;;;;;;4912170;29;20039;-95
2023/06/15 10:44:20;;;;;;;6.90;2.63;;;26.00;89.30;;;;;;4912956;29;20031;-95
2023/06/15 10:46:58;;;;;;;9.60;2.40;;;26.00;89.70;;;;;;4913469;29;20042;-94
2023/06/15 10:49:36;;;;;;;;;;;;;;;;;;;;;
2023/06/15 10:52:23;;;;;;;7.07;2.80;;;26.20;88.20;;;;;;4913584;29;20049;-96
2023/06/15 10:55:08;;;;;;;;;;;;;;;;;;;;;
2023/06/15 10:57:37;;;;;;;7.38;2.80;;;26.40;84.60;;;;;;4924940;29;20135;-96
2023/06/15 11:00:08;;;;;;;5.60;2.38;;;26.40;83.90;;;;;;4924799;29;20068;-96
2023/06/15 11:02:59;;;;;;;5.90;2.17;;;26.40;84.10;;;;;;4911910;29;20044;-96
2023/06/15 11:05:41;;;;;;;5.75;2.55;;;26.40;83.30;;;;;;4925141;29;20039;-94
2023/06/15 11:08:20;;;;;;;5.32;2.28;;;26.50;82.50;;;;;;4910238;29;20032;-96
2023/06/15 11:11:00;;;;;;;11.55;2.40;;;26.60;82.20;;;;;;4909531;29;20070;-95
2023/06/15 11:13:55;;;;;;;4.05;2.20;;;26.60;82.20;;;;;;4925021;29;20032;-96
2023/06/15 11:16:44;;;;;;;5.93;2.20;;;26.70;81.90;;;;;;4930973;29;20352;-96
2023/06/15 11:19:16;;;;;;;7.38;2.35;;;26.70;80.70;;;;;;4929067;29;20098;-96
2023/06/15 11:22:14;;;;;;;;;;;;;;;;;;;;;
2023/06/15 11:24:44;;;;;;;6.32;2.50;;;26.50;79.90;;;;;;4943732;29;20142;-95
2023/06/15 11:27:20;;;;;;;7.32;2.38;;;26.60;79.30;;;;;;4959275;29;20059;-96
2023/06/15 11:30:02;;;;;;;8.02;2.70;;;26.60;78.70;;;;;;4912473;29;20039;-95
2023/06/15 11:32:36;;;;;;;7.35;2.42;;;26.60;77.80;;;;;;4912890;29;20039;-95
2023/06/15 11:35:13;;;;;;;5.47;2.20;;;26.40;78.50;;;;;;4940638;29;20334;-96
2023/06/15 11:37:55;;;;;;;5.45;2.33;;;26.40;79.40;;;;;;4910488;29;20171;-95
2023/06/15 11:40:27;;;;;;;7.07;2.60;;;26.50;79.80;;;;;;4924526;29;20146;-96
2023/06/15 11:43:12;;;;;;;;;;;;;;;;;;;;;
2023/06/15 11:45:53;;;;;;;6.88;2.50;;;26.70;79.50;;;;;;4951214;29;20023;-96
2023/06/15 11:48:34;;;;;;;10.45;2.72;;;26.90;79.70;;;;;;4916313;29;20357;-96
2023/06/15 11:51:17;;;;;;;5.13;2.38;;;26.80;78.70;;;;;;4944218;29;20389;-96
2023/06/15 11:53:47;;;;;;;5.35;2.15;;;26.70;79.50;;;;;;4928258;29;20031;-95
2023/06/15 11:56:24;;;;;;;6.35;2.33;;;26.80;79.90;;;;;;4949951;29;20042;-95
2023/06/15 11:58:56;;;;;;;3.80;2.15;;;26.70;78.40;;;;;;4934281;29;20381;-96
2023/06/15 12:01:28;;;;;;;8.00;2.72;;;26.70;78.20;;;;;;4912252;29;20073;-96
2023/06/15 12:03:59;;;;;;;6.75;2.30;;;26.70;77.50;;;;;;4927637;29;20421;-96
2023/06/15 12:06:30;;;;;;;4.75;2.40;;;26.50;77.60;;;;;;4941385;29;20031;-96
2023/06/15 12:09:03;;;;;;;;;;;26.50;78.90;;;;;;4928492;29;20385;-95
2023/06/15 12:11:46;;;;;;;;;;;;;;;;;;;;;
2023/06/15 12:14:20;;;;;;;5.88;2.30;;;26.70;78.80;;;;;;4958587;29;20038;-94
2023/06/15 12:16:53;;;;;;;5.15;2.50;;;26.70;78.70;;;;;;4928183;29;20031;-95
2023/06/15 12:19:21;;;;;;;4.50;2.20;;;26.90;79.10;;;;;;4958377;29;20046;-94
2023/06/15 12:22:05;;;;;;;6.78;2.30;;;26.90;78.50;;;;;;4927217;29;20373;-96
2023/06/15 12:24:48;;;;;;;5.93;2.40;;;26.90;78.60;;;;;;4908231;29;20043;-95
2023/06/15 12:27:33;;;;;;;;;;;;;;;;;;;;;
2023/06/15 12:30:36;;;;;;;5.63;2.50;;;27.10;78.30;;;;;;4929121;29;20039;-95
2023/06/15 12:33:39;;;;;;;8.85;2.45;;;27.20;78.60;;;;;;4944496;29;20031;-94
2023/06/15 12:36:30;;;;;;;5.85;2.10;;;27.40;78.10;;;;;;4958552;29;20031;-95
2023/06/15 12:39:06;;;;;;;5.20;2.30;;;27.40;77.50;;;;;;4942528;29;20035;-95
2023/06/15 12:41:48;;;;;;;5.43;2.25;;;27.30;77.20;;;;;;4895012;29;20118;-96
2023/06/15 12:44:20;;;;;;;7.03;2.60;;;27.40;77.90;;;;;;4937749;29;20027;-95
2023/06/15 12:46:53;;;;;;;3.90;2.50;;;27.40;77.20;;;;;;4942475;29;20098;-96
2023/06/15 12:49:29;;;;;;;6.93;2.15;;;27.50;77.30;;;;;;4926626;29;20067;-95
2023/06/15 12:52:03;;;;;;;3.58;2.28;;;27.50;77.40;;;;;;4942836;29;20108;-96
2023/06/15 12:54:32;;;;;;;5.35;2.30;;;27.50;76.70;;;;;;4949090;29;20031;-96
2023/06/15 12:56:58;;;;;;;6.80;2.47;;;27.60;76.80;;;;;;4943935;29;20035;-95
2023/06/15 12:59:31;;;;;;;6.55;2.33;;;27.60;77.10;;;;;;4947447;29;20045;-96
2023/06/15 13:02:05;;;;;;;6.88;2.25;;;27.60;77.20;;;;;;4911035;29;20039;-96
2023/06/15 13:05:01;;;;;;;6.68;2.22;;;27.60;77.30;;;;;;4944048;29;20507;-95
2023/06/15 13:07:31;;;;;;;4.43;2.15;;;27.70;78.30;;;;;;4941440;29;20121;-95
2023/06/15 13:10:03;;;;;;;6.25;2.40;;;27.70;78.70;;;;;;4921723;29;20443;-96
2023/06/15 13:12:32;;;;;;;6.32;2.33;;;27.70;78.00;;;;;;4925956;29;20039;-96
2023/06/15 13:18:14;;;;;;;6.00;2.35;;;27.60;77.30;;;;;;4949754;29;20122;-95
2023/06/15 13:20:57;;;;;;;5.00;2.22;;;27.50;77.30;;;;;;4934028;29;20035;-96
2023/06/15 13:23:26;;;;;;;6.65;2.60;;;27.60;77.80;;;;;;4941164;29;20043;-96
2023/06/15 13:26:12;;;;;;;4.50;2.25;;;27.60;77.30;;;;;;4932950;29;20534;-96
2023/06/15 13:28:46;;;;;;;6.63;2.55;;;27.50;76.70;;;;;;4926823;29;20074;-95
2023/06/15 13:31:45;;;;;;;5.43;2.17;;;27.50;77.00;;;;;;4937581;29;20078;-96
2023/06/15 13:34:13;;;;;;;6.47;2.20;;;27.60;76.40;;;;;;4908432;29;20414;-95
2023/06/15 13:36:45;;;;;;;6.13;2.38;;;27.50;75.50;;;;;;4925646;29;20102;-95
2023/06/15 13:39:33;;;;;;;5.95;2.30;;;27.50;75.20;;;;;;4943215;29;20031;-95
2023/06/15 13:42:17;;;;;;;5.78;2.40;;;27.60;75.70;;;;;;4912550;29;20082;-96
2023/06/15 13:45:19;;;;;;;4.55;2.00;;;27.60;75.50;;;;;;4930976;29;20035;-95
2023/06/15 13:47:50;;;;;;;5.72;2.20;;;27.60;75.20;;;;;;4925625;29;20039;-95
2023/06/15 13:50:24;;;;;;;3.70;2.13;;;27.60;75.80;;;;;;4927771;29;20504;-96
2023/06/15 13:53:04;;;;;;;4.13;2.20;;;27.60;75.60;;;;;;4910756;29;20039;-95
2023/06/15 13:55:38;;;;;;;5.72;2.17;;;27.70;75.10;;;;;;4910464;29;20042;-96
2023/06/15 13:58:34;;;;;;;;;;;;;;;;;;;;;
2023/06/15 14:01:23;;;;;;;5.05;2.25;;;27.90;75.20;;;;;;4922708;29;20059;-95
2023/06/15 14:04:18;;;;;;;5.57;2.13;;;27.90;74.70;;;;;;4905400;29;20069;-95
2023/06/15 14:06:44;;;;;;;7.70;2.20;;;27.80;75.10;;;;;;4911589;29;20032;-96
2023/06/15 14:09:16;;;;;;;5.57;2.65;;;27.70;75.00;;;;;;4915777;29;20039;-95